Time;durP1;ratioP1;P1;durP2;ratioP2;P2;SDS_P1;SDS_P2;PMS_P1;PMS_P2;Temp;Humidity;BMP_temperature;BMP_pressure;BME280_temperature;BME280_humidity;BME280_pressure;Samples;Min_cycle;Max_cycle;Signal;HPM_P1;HPM_P2
2021/12/23 00:01:13;;;;;;;5.15;2.40;;;;;;;-10.01;69.92;100720.47;5005714;28;20070;-70
2021/12/23 00:03:43;;;;;;;6.78;2.40;;;;;;;-9.90;69.65;100733.00;4997746;28;20038;-70
2021/12/23 00:06:16;;;;;;;2.63;2.20;;;;;;;-9.92;69.02;100726.94;4998043;28;20181;-70
2021/12/23 00:08:47;;;;;;;3.17;2.10;;;;;;;-9.94;69.13;100731.00;5001593;28;20241;-70
2021/12/23 00:11:17;;;;;;;7.32;2.45;;;;;;;-9.98;68.83;100738.38;5001369;28;20053;-70
2021/12/23 00:13:59;;;;;;;4.40;2.45;;;;;;;-10.19;68.77;100709.00;5001412;28;20081;-70
2021/12/23 00:16:43;;;;;;;3.15;2.20;;;;;;;-10.23;68.95;100695.25;5001601;28;20058;-72
2021/12/23 00:19:23;;;;;;;5.10;2.10;;;;;;;-10.53;68.73;100639.97;5001267;28;20066;-70
2021/12/23 00:24:44;;;;;;;4.10;2.10;;;;;;;-10.51;67.91;100600.56;5001565;28;20074;-69
2021/12/23 00:27:15;;;;;;;2.83;2.10;;;;;;;-9.63;67.84;100745.09;5001232;28;20113;-69
2021/12/23 00:29:46;;;;;;;4.85;2.22;;;;;;;-9.55;67.52;100738.94;5009425;28;20113;-69
2021/12/23 00:32:16;;;;;;;2.17;1.98;;;;;;;-9.49;67.04;100740.13;5020690;28;20065;-69
2021/12/23 00:34:47;;;;;;;3.05;2.28;;;;;;;-9.41;66.71;100746.59;5020577;28;20354;-69
2021/12/23 00:37:20;;;;;;;2.42;2.03;;;;;;;-9.41;65.81;100741.53;5020698;28;20116;-69
2021/12/23 00:39:51;;;;;;;2.28;2.08;;;;;;;-9.48;65.99;100734.28;5020661;28;20060;-69
2021/12/23 00:42:22;;;;;;;3.50;2.33;;;;;;;-9.40;65.92;100743.31;5020682;28;20058;-71
2021/12/23 00:44:53;;;;;;;3.60;1.90;;;;;;;-9.44;65.49;100726.16;5020686;28;20347;-68
2021/12/23 00:47:23;;;;;;;2.88;2.45;;;;;;;-9.43;64.92;100715.28;5020412;28;20080;-69
2021/12/23 00:49:54;;;;;;;2.58;2.10;;;;;;;-9.94;64.46;100634.94;5020458;28;20439;-70
2021/12/23 00:52:31;;;;;;;3.67;2.40;;;;;;;-9.46;64.49;100723.53;5020353;28;20122;-70
2021/12/23 00:55:02;;;;;;;3.35;2.30;;;;;;;-9.36;64.48;100735.16;5020576;28;20062;-70
2021/12/23 00:57:37;;;;;;;3.40;1.98;;;;;;;-9.34;63.92;100728.56;5044954;23;20419;-65
2021/12/23 01:00:10;;;;;;;2.85;1.70;;;;;;;-9.38;63.90;100721.53;5017298;28;20073;-64
2021/12/23 01:02:44;;;;;;;4.10;1.80;;;;;;;-9.77;63.70;100647.13;5018241;28;20061;-66
2021/12/23 01:05:16;;;;;;;2.58;1.85;;;;;;;-9.15;63.91;100725.66;5001397;28;20221;-66
2021/12/23 01:07:49;;;;;;;4.38;2.50;;;;;;;-9.22;63.97;100696.50;5009955;28;20058;-65
2021/12/23 01:10:23;;;;;;;5.40;2.47;;;;;;;-8.96;63.73;100717.69;5005033;28;20046;-66
2021/12/23 01:12:58;;;;;;;6.32;2.60;;;;;;;-8.84;63.74;100721.03;5006254;28;20054;-65
2021/12/23 01:18:29;;;;;;;4.97;2.40;;;;;;;-8.87;63.22;100697.19;4992950;28;20431;-66
2021/12/23 01:21:16;;;;;;;5.53;2.40;;;;;;;-9.16;63.32;100630.25;5005900;28;20054;-67
2021/12/23 01:23:50;;;;;;;5.07;2.70;;;;;;;-8.60;62.20;100724.38;5005782;28;20088;-67
2021/12/23 01:26:23;;;;;;;6.53;2.83;;;;;;;-8.56;62.27;100712.78;5005876;28;20109;-67
2021/12/23 01:28:58;;;;;;;2.90;2.22;;;;;;;-8.70;62.46;100696.66;5005978;28;20118;-66
2021/12/23 01:31:32;;;;;;;4.30;2.63;;;;;;;-8.66;61.95;100678.38;5006309;28;20084;-66
2021/12/23 01:34:03;;;;;;;5.22;3.13;;;;;;;-9.05;61.88;100641.13;5006570;28;20054;-66
2021/12/23 01:36:34;;;;;;;8.23;4.13;;;;;;;-8.86;61.79;100643.22;5005151;28;20041;-65
2021/12/23 01:39:07;;;;;;;4.60;2.97;;;;;;;-8.44;61.48;100706.00;5006431;28;20293;-66
2021/12/23 01:41:38;;;;;;;5.75;2.78;;;;;;;-8.37;61.58;100692.06;5006378;28;20054;-65
2021/12/23 01:44:09;;;;;;;2.88;2.10;;;;;;;-8.42;61.25;100658.81;5005958;28;20049;-66
2021/12/23 01:46:40;;;;;;;4.28;2.10;;;;;;;-8.20;60.91;100680.50;5006357;28;20048;-67
2021/12/23 01:49:10;;;;;;;2.58;1.85;;;;;;;-8.15;60.63;100684.19;5006722;28;20141;-66
2021/12/23 01:51:42;;;;;;;3.85;2.30;;;;;;;-8.17;59.38;100690.81;5006611;28;20057;-66
2021/12/23 01:54:15;;;;;;;3.65;2.20;;;;;;;-8.30;58.76;100669.72;5006314;28;20053;-66
2021/12/23 01:56:45;;;;;;;2.55;1.67;;;;;;;-8.32;59.21;100666.22;5011408;28;20076;-67
2021/12/23 01:59:16;;;;;;;2.45;1.83;;;;;;;-8.34;58.95;100667.78;5048804;23;20149;-73
2021/12/23 02:01:47;;;;;;;2.97;1.98;;;;;;;-8.31;58.85;100657.84;5021367;28;20048;-71
2021/12/23 02:04:18;;;;;;;3.17;2.00;;;;;;;-8.23;57.85;100658.34;5021553;28;20328;-71
2021/12/23 02:06:49;;;;;;;3.03;1.85;;;;;;;-8.14;57.72;100656.38;5021612;28;20049;-71
2021/12/23 02:09:22;;;;;;;3.80;2.00;;;;;;;-8.26;57.72;100640.41;5023356;28;20252;-71
2021/12/23 02:11:52;;;;;;;1.60;1.50;;;;;;;-9.06;57.03;100523.78;5024163;28;20099;-72
2021/12/23 02:14:23;;;;;;;1.90;1.75;;;;;;;-8.23;57.57;100650.75;5020550;28;20374;-71
2021/12/23 02:16:54;;;;;;;3.03;2.22;;;;;;;-8.22;57.99;100646.53;5021353;28;20058;-74
2021/12/23 02:19:25;;;;;;;2.95;2.17;;;;;;;-8.25;57.60;100648.09;5022357;28;20045;-76
2021/12/23 02:21:57;;;;;;;4.65;2.20;;;;;;;-8.31;57.00;100636.66;5020041;28;20053;-73
2021/12/23 02:24:28;;;;;;;2.67;1.77;;;;;;;-8.56;57.28;100588.63;5021777;28;20088;-73
2021/12/23 02:26:59;;;;;;;5.70;2.80;;;;;;;-8.75;57.42;100587.44;5019459;28;20062;-71
2021/12/23 02:29:30;;;;;;;3.72;2.60;;;;;;;-8.43;57.19;100634.28;5018724;28;20159;-71
2021/12/23 02:32:01;;;;;;;3.63;2.85;;;;;;;-8.46;57.76;100636.63;5016753;28;20081;-74
2021/12/23 02:34:31;;;;;;;3.60;2.40;;;;;;;-8.42;57.07;100637.69;5015747;28;20359;-74
2021/12/23 02:37:04;;;;;;;1.90;1.80;;;;;;;-8.58;57.31;100605.41;5018582;28;20045;-71
2021/12/23 02:39:34;;;;;;;2.65;2.00;;;;;;;-8.37;57.18;100616.88;5022280;28;20407;-72
2021/12/23 02:42:05;;;;;;;2.70;1.85;;;;;;;-8.21;56.71;100618.78;5021602;28;20054;-73
2021/12/23 02:44:36;;;;;;;3.80;1.52;;;;;;;-8.28;55.58;100597.22;5020722;28;20057;-73
2021/12/23 02:47:07;;;;;;;6.18;1.80;;;;;;;-7.82;55.29;100625.47;5021584;28;20076;-72
2021/12/23 02:49:38;;;;;;;2.90;1.95;;;;;;;-7.77;55.21;100605.47;5023368;28;20054;-74
2021/12/23 02:52:10;;;;;;;2.33;1.70;;;;;;;-7.54;53.83;100619.56;5020350;28;20392;-74
2021/12/23 02:54:41;;;;;;;1.85;1.55;;;;;;;-7.32;53.56;100623.44;5020048;28;20080;-74
2021/12/23 02:57:12;;;;;;;3.78;2.03;;;;;;;-7.13;54.19;100615.25;5021048;28;20234;-74
2021/12/23 02:59:43;;;;;;;2.30;1.63;;;;;;;-7.19;53.16;100623.38;5020592;28;20061;-75
2021/12/23 03:02:13;;;;;;;2.28;1.85;;;;;;;-7.10;53.38;100621.41;5032296;22;20060;-73
2021/12/23 03:04:44;;;;;;;4.90;2.08;;;;;;;-7.20;53.23;100629.25;5024696;28;20062;-72
2021/12/23 03:07:17;;;;;;;3.55;1.67;;;;;;;-7.23;53.13;100624.00;5024200;28;20057;-72
2021/12/23 03:09:48;;;;;;;4.57;2.42;;;;;;;-7.44;53.36;100614.28;5023666;28;20240;-74
2021/12/23 03:12:19;;;;;;;3.15;1.85;;;;;;;-7.50;53.56;100618.97;5023062;28;20050;-74
2021/12/23 03:14:50;;;;;;;3.17;2.13;;;;;;;-7.62;53.95;100596.25;5023085;28;20054;-74
2021/12/23 03:17:24;;;;;;;4.38;2.00;;;;;;;-7.45;53.37;100615.06;5022768;28;20042;-72
2021/12/23 03:19:54;;;;;;;4.25;2.08;;;;;;;-7.65;53.82;100598.59;5023675;28;20168;-74
2021/12/23 03:22:27;;;;;;;2.97;1.50;;;;;;;-7.57;53.49;100601.63;5022785;28;20054;-73
2021/12/23 03:24:58;;;;;;;3.22;1.98;;;;;;;-7.69;53.59;100600.84;5023984;28;20116;-71
2021/12/23 03:27:29;;;;;;;2.78;1.77;;;;;;;-8.44;52.75;100513.41;5024056;28;20092;-73
2021/12/23 03:29:59;;;;;;;3.10;1.98;;;;;;;-8.04;53.75;100607.13;5023858;28;20052;-73
2021/12/23 03:32:30;;;;;;;3.05;2.13;;;;;;;-8.05;53.87;100605.41;5024080;28;20096;-74
2021/12/23 03:35:01;;;;;;;4.68;1.92;;;;;;;-8.13;54.04;100599.84;5023985;28;20061;-74
2021/12/23 03:37:33;;;;;;;5.00;2.22;;;;;;;-8.23;54.01;100583.97;5023996;28;20081;-71
2021/12/23 03:40:05;;;;;;;3.92;2.10;;;;;;;-8.11;53.79;100605.00;5023712;28;20181;-75
2021/12/23 03:42:35;;;;;;;1.98;1.60;;;;;;;-8.10;53.99;100586.47;5023191;28;20116;-74
2021/12/23 03:45:08;;;;;;;5.18;1.98;;;;;;;-7.90;54.57;100596.22;5023198;28;20057;-74
2021/12/23 03:47:39;;;;;;;2.67;1.90;;;;;;;-8.16;54.43;100541.34;5022693;28;20089;-75
2021/12/23 03:50:10;;;;;;;3.13;1.83;;;;;;;-7.84;54.68;100577.94;5042056;28;20050;-76
2021/12/23 03:52:42;;;;;;;2.25;1.65;;;;;;;-8.06;53.90;100545.34;5042521;28;20120;-71
2021/12/23 03:55:14;;;;;;;2.42;1.92;;;;;;;-7.98;53.67;100561.91;5040738;28;20108;-74
2021/12/23 03:57:46;;;;;;;3.97;1.92;;;;;;;-7.91;52.98;100573.28;5043435;28;20115;-74
2021/12/23 04:00:19;;;;;;;3.03;1.95;;;;;;;-7.81;53.94;100581.56;5043414;28;20060;-74
2021/12/23 04:02:50;;;;;;;2.17;1.85;;;;;;;-7.58;53.95;100587.19;5042472;28;20350;-72
2021/12/23 04:05:22;;;;;;;2.30;1.80;;;;;;;-7.60;52.89;100586.22;5058244;23;20057;-64
2021/12/23 04:07:54;;;;;;;2.65;1.90;;;;;;;-7.53;53.59;100593.41;5033390;28;20053;-65
2021/12/23 04:10:25;;;;;;;2.10;1.83;;;;;;;-7.58;53.39;100573.63;5032995;28;20048;-65
2021/12/23 04:12:56;;;;;;;4.45;2.00;;;;;;;-7.45;53.70;100592.22;5031647;28;20166;-64
2021/12/23 04:15:27;;;;;;;4.15;1.92;;;;;;;-7.46;53.51;100580.31;5033304;28;20054;-65
2021/12/23 04:17:58;;;;;;;2.13;1.73;;;;;;;-7.41;52.96;100594.16;5033076;28;20092;-65
2021/12/23 04:20:35;;;;;;;4.80;2.25;;;;;;;-7.46;53.60;100590.47;5033422;28;20088;-66
2021/12/23 04:23:07;;;;;;;3.47;2.10;;;;;;;-7.29;53.93;100598.22;5032168;28;20100;-65
2021/12/23 04:25:38;;;;;;;2.65;2.00;;;;;;;-7.37;53.52;100611.31;5032685;28;20053;-64
2021/12/23 04:28:09;;;;;;;2.03;1.60;;;;;;;-7.30;53.69;100601.56;5032482;28;20049;-64
2021/12/23 04:30:39;;;;;;;4.32;1.95;;;;;;;-7.37;53.49;100601.16;5032924;28;20053;-65
2021/12/23 04:33:10;;;;;;;3.88;2.03;;;;;;;-7.45;53.09;100594.75;5033057;28;20045;-66
2021/12/23 04:35:41;;;;;;;2.08;1.80;;;;;;;-7.61;53.81;100582.81;5033088;28;20077;-65
2021/12/23 04:38:13;;;;;;;5.32;1.92;;;;;;;-7.51;53.72;100602.00;5032048;28;20041;-65
2021/12/23 04:40:43;;;;;;;4.40;2.00;;;;;;;-7.49;53.62;100602.94;5032340;28;20045;-65
2021/12/23 04:43:14;;;;;;;19.23;7.25;;;;;;;-7.39;53.47;100607.84;5032888;28;20056;-65
2021/12/23 04:45:45;;;;;;;12.07;5.22;;;;;;;-7.55;53.72;100589.91;5032730;28;20101;-65
2021/12/23 04:48:16;;;;;;;5.40;2.60;;;;;;;-7.41;53.34;100590.75;5032940;28;20089;-64
2021/12/23 04:50:46;;;;;;;5.03;2.00;;;;;;;-7.24;53.19;100614.59;5032864;28;20045;-65
2021/12/23 04:53:18;;;;;;;3.30;2.13;;;;;;;-7.33;53.00;100606.44;5034991;28;20060;-65
2021/12/23 04:55:49;;;;;;;5.22;2.20;;;;;;;-7.53;53.39;100588.34;5036468;28;20045;-66
2021/12/23 04:58:20;;;;;;;4.82;1.98;;;;;;;-7.69;53.13;100595.78;5036647;28;20065;-65
2021/12/23 05:00:52;;;;;;;2.78;1.80;;;;;;;-7.77;53.75;100591.91;5036344;28;20087;-66
2021/12/23 05:03:25;;;;;;;4.10;2.00;;;;;;;-7.89;54.53;100597.94;5036438;28;20053;-65
2021/12/23 05:05:59;;;;;;;2.13;1.73;;;;;;;-8.52;55.24;100496.84;5027619;28;20049;-64
2021/12/23 05:08:31;;;;;;;3.83;2.15;;;;;;;-7.75;55.13;100625.88;4985297;28;20045;-65
2021/12/23 05:11:02;;;;;;;3.10;1.90;;;;;;;-7.77;54.86;100604.59;4986974;28;20062;-64
2021/12/23 05:13:33;;;;;;;5.03;1.92;;;;;;;-7.70;54.85;100606.72;4987453;28;20058;-64
2021/12/23 05:16:04;;;;;;;3.58;1.80;;;;;;;-7.72;55.50;100615.91;4982970;28;20094;-64
2021/12/23 05:18:35;;;;;;;3.53;1.67;;;;;;;-7.85;55.52;100620.19;4985433;28;20093;-66
2021/12/23 05:21:06;;;;;;;4.72;2.15;;;;;;;-7.79;56.06;100634.06;4986775;28;20525;-66
2021/12/23 05:23:39;;;;;;;4.18;2.00;;;;;;;-7.89;56.02;100628.38;4986927;28;20078;-66
2021/12/23 05:26:09;;;;;;;2.90;1.70;;;;;;;-8.05;56.09;100615.53;4986802;28;20093;-66
2021/12/23 05:28:40;;;;;;;2.22;1.83;;;;;;;-7.98;56.81;100627.84;4986802;28;20054;-66
2021/12/23 05:31:11;;;;;;;4.57;2.58;;;;;;;-7.95;56.06;100638.16;4986364;28;20051;-66
2021/12/23 05:33:42;;;;;;;10.27;5.38;;;;;;;-8.10;56.19;100632.13;4984990;28;20062;-65
2021/12/23 05:36:13;;;;;;;12.85;6.18;;;;;;;-8.06;56.19;100634.09;4985271;28;20061;-65
2021/12/23 05:38:45;;;;;;;11.70;5.18;;;;;;;-8.13;56.00;100629.41;4986348;28;20054;-66
2021/12/23 05:41:16;;;;;;;4.05;1.95;;;;;;;-8.24;55.50;100626.16;4986575;28;20122;-65
2021/12/23 05:43:47;;;;;;;5.10;2.70;;;;;;;-8.16;55.88;100649.47;4985513;28;20055;-65
2021/12/23 05:46:18;;;;;;;4.25;2.13;;;;;;;-8.31;56.20;100627.44;4984652;28;20434;-65
2021/12/23 05:48:49;;;;;;;4.57;1.70;;;;;;;-8.25;56.13;100643.03;4985558;28;20073;-65
2021/12/23 05:51:20;;;;;;;3.10;2.05;;;;;;;-8.31;56.93;100632.50;4985940;28;20102;-64
2021/12/23 05:53:52;;;;;;;3.22;1.85;;;;;;;-8.16;56.57;100646.94;4986355;28;20054;-64
2021/12/23 05:56:28;;;;;;;3.05;1.90;;;;;;;-8.59;56.63;100580.84;4979803;28;20256;-65
2021/12/23 05:58:59;;;;;;;2.78;2.10;;;;;;;-8.20;56.60;100660.19;4986161;28;20070;-64
2021/12/23 06:01:30;;;;;;;3.47;2.00;;;;;;;-8.26;56.93;100651.44;4986301;28;20054;-64
2021/12/23 06:04:01;;;;;;;9.93;2.35;;;;;;;-8.35;57.13;100645.75;4985182;28;20409;-64
2021/12/23 06:06:31;;;;;;;2.55;1.90;;;;;;;-8.50;57.81;100619.44;4986088;28;20114;-64
2021/12/23 06:09:04;;;;;;;2.15;1.95;;;;;;;-8.51;58.27;100637.94;5012562;23;20053;-75
2021/12/23 06:11:35;;;;;;;3.53;2.00;;;;;;;-8.71;58.32;100624.88;4993645;28;20054;-72
2021/12/23 06:14:06;;;;;;;4.05;2.90;;;;;;;-8.67;58.58;100671.53;4992609;28;20065;-76
2021/12/23 06:16:37;;;;;;;2.90;1.90;;;;;;;-8.79;59.21;100656.38;4991281;28;20076;-72
2021/12/23 06:19:08;;;;;;;4.07;2.15;;;;;;;-9.47;59.54;100564.91;4991782;28;20067;-72
2021/12/23 06:21:39;;;;;;;4.55;2.13;;;;;;;-9.04;59.81;100658.91;4992385;28;20050;-75
2021/12/23 06:24:11;;;;;;;5.13;2.30;;;;;;;-9.10;60.46;100652.59;4992596;28;20045;-74
2021/12/23 06:26:42;;;;;;;4.03;2.00;;;;;;;-9.32;60.15;100656.16;4991695;28;20073;-74
2021/12/23 06:29:13;;;;;;;10.60;2.65;;;;;;;-9.40;60.21;100657.28;4989601;28;20070;-73
2021/12/23 06:31:43;;;;;;;7.13;2.30;;;;;;;-9.62;60.87;100644.78;4993952;28;20061;-73
2021/12/23 06:34:14;;;;;;;3.97;2.15;;;;;;;-9.62;60.95;100676.03;4990505;28;20054;-73
2021/12/23 06:36:46;;;;;;;4.95;2.10;;;;;;;-9.93;61.74;100655.28;4993356;28;20244;-73
2021/12/23 06:39:18;;;;;;;2.95;1.90;;;;;;;-10.05;62.24;100667.91;4991815;28;20054;-76
2021/12/23 06:41:49;;;;;;;4.28;2.35;;;;;;;-10.07;62.83;100679.56;4990845;28;21030;-76
2021/12/23 06:44:20;;;;;;;7.47;2.08;;;;;;;-10.53;63.55;100614.72;4990378;28;20570;-72
2021/12/23 06:46:51;;;;;;;3.90;2.20;;;;;;;-10.20;64.10;100682.84;4990481;28;20205;-71
2021/12/23 06:49:22;;;;;;;4.90;2.50;;;;;;;-10.31;64.27;100687.91;5005024;28;20100;-72
2021/12/23 06:51:53;;;;;;;2.40;2.10;;;;;;;-10.47;65.06;100685.91;5006289;28;20114;-71
2021/12/23 06:54:25;;;;;;;3.40;2.33;;;;;;;-10.56;65.09;100686.09;5004749;28;20291;-71
2021/12/23 06:56:56;;;;;;;7.28;2.70;;;;;;;-10.74;64.68;100679.69;5005683;28;20089;-72
2021/12/23 06:59:27;;;;;;;4.78;2.42;;;;;;;-10.95;65.20;100687.41;5004683;28;20069;-72
2021/12/23 07:01:58;;;;;;;7.22;3.85;;;;;;;-11.17;65.12;100676.44;5007053;28;20049;-70
2021/12/23 07:04:33;;;;;;;6.90;4.82;;;;;;;-11.40;65.53;100678.09;5005844;28;20364;-72
2021/12/23 07:07:10;;;;;;;5.22;3.75;;;;;;;-11.58;65.64;100686.72;5005351;28;20362;-72
2021/12/23 07:09:44;;;;;;;4.55;3.20;;;;;;;-11.80;66.00;100702.72;5005836;28;20081;-71
2021/12/23 07:12:15;;;;;;;8.30;2.75;;;;;;;-12.30;67.10;100665.94;5027377;23;20057;-73
2021/12/23 07:14:45;;;;;;;6.15;3.80;;;;;;;-12.39;67.77;100708.88;5043729;28;20057;-73
2021/12/23 07:17:17;;;;;;;8.32;3.42;;;;;;;-12.58;68.61;100706.50;5043908;28;20108;-72
2021/12/23 07:19:48;;;;;;;11.55;3.78;;;;;;;-12.83;69.47;100693.50;5044083;28;20491;-73
2021/12/23 07:22:19;;;;;;;7.65;3.97;;;;;;;-12.88;69.98;100709.88;5043455;28;20045;-73
2021/12/23 07:24:51;;;;;;;5.60;3.70;;;;;;;-12.94;70.62;100724.47;5043643;28;20536;-73
2021/12/23 07:27:22;;;;;;;5.30;3.00;;;;;;;-12.89;70.93;100728.25;5044043;28;20060;-71
2021/12/23 07:29:53;;;;;;;8.70;2.95;;;;;;;-12.96;70.49;100731.00;5043396;28;20111;-70
2021/12/23 07:32:23;;;;;;;9.05;3.90;;;;;;;-13.04;70.51;100708.59;5043341;28;20037;-72
2021/12/23 07:34:54;;;;;;;30.40;12.68;;;;;;;-13.17;70.28;100690.72;5043775;28;20056;-74
2021/12/23 07:37:25;;;;;;;24.45;11.20;;;;;;;-13.13;70.54;100727.91;5043890;28;20681;-77
2021/12/23 07:39:58;;;;;;;41.80;16.27;;;;;;;-13.68;70.85;100627.75;5043686;28;20053;-71
2021/12/23 07:42:32;;;;;;;100.90;39.03;;;;;;;-13.29;71.56;100699.75;5044138;28;20067;-72
2021/12/23 07:45:03;;;;;;;145.18;56.17;;;;;;;-13.13;72.40;100720.38;5043734;28;20121;-73
2021/12/23 07:47:35;;;;;;;95.00;41.17;;;;;;;-13.11;73.08;100746.53;5043846;28;20091;-74
2021/12/23 07:50:07;;;;;;;87.75;39.35;;;;;;;-13.31;72.91;100732.31;5043790;28;20139;-72
2021/12/23 07:52:38;;;;;;;45.60;22.92;;;;;;;-13.24;73.02;100748.78;5043246;28;20056;-71
2021/12/23 07:55:11;;;;;;;41.17;20.13;;;;;;;-13.47;72.85;100730.13;5043308;28;20112;-73
2021/12/23 07:57:42;;;;;;;25.85;13.18;;;;;;;-13.50;72.75;100755.00;5043714;28;20061;-73
2021/12/23 08:00:15;;;;;;;15.98;7.90;;;;;;;-13.82;72.71;100718.66;5043443;28;20251;-71
2021/12/23 08:02:46;;;;;;;14.48;7.65;;;;;;;-13.89;72.93;100742.34;5043148;28;20111;-73
2021/12/23 08:05:16;;;;;;;12.48;6.72;;;;;;;-14.51;72.85;100669.91;5044494;28;20332;-72
2021/12/23 08:07:48;;;;;;;11.98;7.05;;;;;;;-14.39;72.72;100732.09;5042868;28;20061;-74
2021/12/23 08:10:20;;;;;;;12.73;7.65;;;;;;;-14.44;72.80;100755.91;5042958;28;20282;-73
2021/12/23 08:12:52;;;;;;;11.05;6.45;;;;;;;-14.57;73.06;100753.06;5043370;28;20338;-72
2021/12/23 08:15:23;;;;;;;11.43;5.60;;;;;;;-14.57;72.84;100760.59;5064178;23;20281;-78
2021/12/23 08:17:53;;;;;;;5.43;3.58;;;;;;;-14.55;72.85;100759.09;5059337;28;20099;-78
2021/12/23 08:20:24;;;;;;;5.88;2.80;;;;;;;-14.57;73.34;100760.59;5053856;28;20275;-78
2021/12/23 08:22:55;;;;;;;3.92;3.05;;;;;;;-14.56;73.40;100762.34;5058219;28;20460;-78
2021/12/23 08:25:28;;;;;;;6.05;2.95;;;;;;;-14.70;73.54;100742.66;5048239;28;20053;-78
2021/12/23 08:27:59;;;;;;;3.22;2.10;;;;;;;-14.90;73.70;100709.13;5045288;23;20129;-64
2021/12/23 08:30:39;;;;;;;3.85;2.65;;;;;;;-14.82;73.83;100735.78;5048111;28;20057;-64
2021/12/23 08:33:10;;;;;;;3.47;2.60;;;;;;;-14.82;73.56;100749.97;5048119;28;20053;-65
2021/12/23 08:35:41;;;;;;;3.53;2.80;;;;;;;-14.82;73.78;100753.34;5047113;28;20351;-64
2021/12/23 08:38:12;;;;;;;3.40;2.72;;;;;;;-14.84;73.85;100759.84;5046803;28;20053;-64
2021/12/23 08:40:45;;;;;;;5.75;2.92;;;;;;;-14.93;73.76;100751.47;5047236;28;20251;-64
2021/12/23 08:43:15;;;;;;;4.45;2.17;;;;;;;-15.03;73.83;100751.38;5046879;28;20311;-64
2021/12/23 08:45:46;;;;;;;7.32;2.85;;;;;;;-15.03;73.73;100756.38;5046839;28;20061;-64
2021/12/23 08:48:17;;;;;;;2.38;2.17;;;;;;;-15.15;73.72;100750.22;5046589;28;20168;-66
2021/12/23 08:50:48;;;;;;;3.25;2.63;;;;;;;-15.31;73.59;100741.28;5046611;28;20239;-63
2021/12/23 08:53:19;;;;;;;2.55;2.22;;;;;;;-15.33;73.66;100757.78;5047246;28;20080;-64
2021/12/23 08:55:51;;;;;;;6.00;3.00;;;;;;;-15.56;73.53;100749.75;5046608;28;20335;-67
2021/12/23 08:58:22;;;;;;;3.63;2.50;;;;;;;-15.65;74.03;100760.69;5046971;28;20067;-66
2021/12/23 09:00:53;;;;;;;3.53;2.75;;;;;;;-15.69;74.23;100763.63;5046728;28;20045;-65
2021/12/23 09:03:25;;;;;;;2.25;2.10;;;;;;;-15.70;74.25;100771.94;5046687;28;20617;-65
2021/12/23 09:05:56;;;;;;;5.90;3.20;;;;;;;-15.81;74.33;100777.50;5046465;28;20053;-65
2021/12/23 09:08:27;;;;;;;6.75;3.45;;;;;;;-15.94;74.32;100774.59;5046478;28;20267;-65
2021/12/23 09:11:00;;;;;;;2.97;2.47;;;;;;;-16.15;74.53;100749.22;5046024;28;20045;-65
2021/12/23 09:13:32;;;;;;;2.83;2.50;;;;;;;-15.94;74.57;100789.59;5046013;28;20087;-65
2021/12/23 09:18:29;;;;;;;8.80;3.67;;;;;;;-16.06;74.41;100788.41;5043212;23;20128;-73
2021/12/23 09:20:59;;;;;;;13.63;5.80;;;;;;;-16.05;74.34;100780.16;5045782;28;20086;-74
2021/12/23 09:23:30;;;;;;;31.15;11.25;;;;;;;-15.92;74.36;100788.13;5046115;28;20091;-74
2021/12/23 09:26:09;;;;;;;48.88;18.42;;;;;;;-16.28;74.17;100726.28;5046557;28;20056;-74
2021/12/23 09:28:53;;;;;;;52.53;20.75;;;;;;;-15.98;74.48;100785.03;5046687;28;20122;-74
2021/12/23 09:34:14;;;;;;;8.07;4.80;;;;;;;-16.57;74.53;100726.84;5046296;28;20045;-73
2021/12/23 09:36:45;;;;;;;5.15;3.25;;;;;;;-16.38;74.49;100768.66;5046052;28;20120;-73
2021/12/23 09:39:16;;;;;;;3.55;3.00;;;;;;;-16.32;74.45;100799.28;5045704;28;20359;-73
2021/12/23 09:41:48;;;;;;;5.40;3.15;;;;;;;-16.56;74.39;100768.63;5045965;28;20052;-72
2021/12/23 09:44:19;;;;;;;9.65;4.82;;;;;;;-16.36;74.79;100792.19;5045847;28;20053;-74
2021/12/23 09:46:51;;;;;;;27.58;8.23;;;;;;;-16.33;74.41;100790.88;5045840;28;20080;-73
2021/12/23 09:49:24;;;;;;;55.22;15.73;;;;;;;-16.32;74.33;100789.28;5046008;28;20433;-71
2021/12/23 09:51:57;;;;;;;124.93;27.27;;;;;;;-16.29;73.76;100778.69;5046155;28;20113;-74
2021/12/23 09:54:28;;;;;;;115.53;25.85;;;;;;;-16.27;73.41;100798.13;5046262;28;20080;-74
2021/12/23 09:57:01;;;;;;;34.83;11.63;;;;;;;-16.35;73.34;100813.97;5045633;28;20056;-72
2021/12/23 09:59:32;;;;;;;25.02;9.00;;;;;;;-16.59;72.94;100788.31;5046196;28;20047;-72
2021/12/23 10:02:03;;;;;;;31.85;11.15;;;;;;;-16.40;73.27;100811.00;5049504;28;20060;-71
2021/12/23 10:04:34;;;;;;;45.88;16.33;;;;;;;-17.11;72.72;100692.34;5047449;28;20243;-71
2021/12/23 10:07:06;;;;;;;81.72;27.85;;;;;;;-16.56;72.66;100815.25;5046797;28;20209;-70
2021/12/23 10:09:44;;;;;;;19.80;9.73;;;;;;;-16.60;72.55;100811.53;5046318;28;20126;-71
2021/12/23 10:32:21;;;;;;;;;;;;;;;-16.46;72.52;100824.56;5032717;28;20347;-66
2021/12/23 10:37:39;;;;;;;13.55;5.25;;;;;;;-16.88;72.24;100804.56;5033188;28;20053;-68
2021/12/23 10:40:14;;;;;;;7.68;4.28;;;;;;;-16.94;72.38;100811.44;5033558;28;20049;-67
2021/12/23 10:42:52;;;;;;;9.52;4.25;;;;;;;-17.07;72.60;100810.25;5033552;28;20053;-68
2021/12/23 10:45:25;;;;;;;6.68;4.00;;;;;;;-16.94;72.93;100827.34;5033600;28;20045;-66
2021/12/23 10:47:59;;;;;;;3.83;3.08;;;;;;;-16.98;72.83;100811.16;5033577;28;20220;-68
2021/12/23 10:50:36;;;;;;;4.45;3.08;;;;;;;-17.17;72.78;100767.53;5032756;28;20387;-68
2021/12/23 10:53:09;;;;;;;29.45;12.70;;;;;;;-16.91;72.60;100821.78;5033713;28;20060;-67
2021/12/23 10:58:28;;;;;;;8.00;4.82;;;;;;;-16.86;72.59;100836.50;5033499;28;20329;-67
2021/12/23 11:01:02;;;;;;;8.23;5.95;;;;;;;-17.05;72.30;100813.75;5033146;28;20156;-67
2021/12/23 11:03:41;;;;;;;8.35;5.28;;;;;;;-16.97;72.27;100842.94;5034381;28;20065;-66
2021/12/23 11:06:17;;;;;;;10.80;6.78;;;;;;;-17.07;72.17;100845.22;5033264;28;20359;-68
2021/12/23 11:08:55;;;;;;;7.22;5.60;;;;;;;-17.18;72.25;100833.25;5033335;28;20065;-66
2021/12/23 11:11:58;;;;;;;4.00;3.47;;;;;;;-17.25;71.91;100828.34;5033989;28;20080;-67
2021/12/23 11:29:31;;;;;;;3.97;3.15;;;;;;;-18.11;72.89;100830.38;4974803;28;20125;-64
2021/12/23 11:37:47;;;;;;;4.63;4.05;;;;;;;-18.19;73.19;100821.22;4970331;28;20911;-65
2021/12/23 11:40:37;;;;;;;4.03;3.63;;;;;;;-18.14;73.47;100824.16;4971937;28;20109;-65
2021/12/23 11:43:27;;;;;;;6.63;3.80;;;;;;;-18.21;73.43;100817.66;4973579;28;20331;-64
2021/12/23 11:45:59;;;;;;;5.35;3.67;;;;;;;-18.11;73.51;100824.50;4973719;28;20070;-64
2021/12/23 11:48:31;;;;;;;30.05;9.90;;;;;;;-18.22;73.68;100805.91;4973724;28;20063;-64
2021/12/23 11:51:14;;;;;;;9.45;5.13;;;;;;;-18.25;73.87;100809.69;4973566;28;20423;-64
2021/12/23 11:53:48;;;;;;;5.53;4.32;;;;;;;-18.31;73.83;100827.38;4974667;28;20050;-64
2021/12/23 11:56:21;;;;;;;4.95;3.85;;;;;;;-18.43;74.02;100793.69;4973087;28;22288;-64
2021/12/23 11:58:55;;;;;;;4.80;3.03;;;;;;;-18.37;74.15;100805.16;4968451;28;20051;-64
2021/12/23 12:01:28;;;;;;;3.50;3.20;;;;;;;-18.28;73.99;100818.63;4970189;28;20109;-65
2021/12/23 12:04:01;;;;;;;3.10;2.90;;;;;;;-18.29;74.08;100809.38;4976059;28;20066;-64
2021/12/23 12:06:41;;;;;;;4.65;4.05;;;;;;;-18.43;74.07;100774.63;4976917;28;20063;-64
2021/12/23 12:09:14;;;;;;;11.43;4.30;;;;;;;-18.21;74.20;100814.28;4970384;28;20121;-64
2021/12/23 12:11:51;;;;;;;4.40;3.10;;;;;;;-18.22;74.33;100800.03;4967503;28;20244;-65
2021/12/23 12:14:43;;;;;;;5.50;3.38;;;;;;;-18.11;74.02;100814.53;4973617;28;20228;-65
2021/12/23 12:17:39;;;;;;;6.72;5.38;;;;;;;-18.01;74.05;100822.25;4973009;28;20078;-64
2021/12/23 12:20:35;;;;;;;15.05;8.73;;;;;;;-18.16;74.29;100786.59;4973885;28;20086;-64
2021/12/23 12:23:12;;;;;;;23.10;11.63;;;;;;;-17.86;74.47;100816.34;4974111;28;20069;-64
2021/12/23 12:26:00;;;;;;;8.68;5.05;;;;;;;-17.79;74.04;100809.50;4999251;23;20047;-71
2021/12/23 12:28:37;;;;;;;6.28;4.35;;;;;;;-17.69;73.82;100817.19;5030672;28;20523;-72
2021/12/23 12:31:11;;;;;;;13.82;6.22;;;;;;;-17.74;73.63;100814.22;5031993;28;20099;-71
2021/12/23 12:33:52;;;;;;;10.50;4.50;;;;;;;-17.74;73.92;100813.31;5031994;28;20059;-74
2021/12/23 12:36:23;;;;;;;3.35;3.03;;;;;;;-18.30;73.70;100701.97;5031842;28;20048;-72
2021/12/23 12:39:15;;;;;;;4.15;3.35;;;;;;;-17.53;74.00;100810.53;5031794;28;20053;-71
2021/12/23 12:41:46;;;;;;;3.42;2.80;;;;;;;-17.61;73.79;100801.38;5031538;28;20061;-73